Houston's Hourly Summary for Monday, March 13, 2017
Hour Temp
(f)
RH
(%)
Solar Rad.
(MJ/m2)
Rainfall
(in)
Wind
(mph)
3/13/2017 12:00 AM 56 75 0 0 1.81
3/13/2017 1:00 AM 55 76 0 0 0.95
3/13/2017 2:00 AM 54 80 0 0 0.52
3/13/2017 3:00 AM 52 86 0 0 0
3/13/2017 4:00 AM 51 96 0 0 0
3/13/2017 5:00 AM 52 94 0 0 0.01
3/13/2017 6:00 AM 52 92 0 0 1.27
3/13/2017 7:00 AM 52 92 0 0 1.74
3/13/2017 8:00 AM 53 91 0.01 0 1.97
3/13/2017 9:00 AM 53 88 0.1 0 3.65
3/13/2017 10:00 AM 54 84 0.31 0 4
3/13/2017 11:00 AM 56 74 0.71 0 4.28
3/13/2017 12:00 PM 59 68 1.7 0 3.49
3/13/2017 1:00 PM 61 64 1.27 0 4.25
3/13/2017 2:00 PM 61 64 1.87 0 5.12
3/13/2017 3:00 PM 64 56 2.25 0 4.73
3/13/2017 4:00 PM 65 54 2.21 0 5.83
3/13/2017 5:00 PM 66 47 1.96 0 6.56
3/13/2017 6:00 PM 67 48 1.3 0 5.55
3/13/2017 7:00 PM 66 48 0.58 0 3.82
3/13/2017 8:00 PM 64 47 0.05 0 4.01
3/13/2017 9:00 PM 60 58 0 0 2.03
3/13/2017 10:00 PM 58 64 0 0 0.67
3/13/2017 11:00 PM 54 66 0 0 0
Data Summary 57 71 14.32 0.00 2.76